Terminal Aerodrome Forecast
Issued by NWS Pueblo, CO

Current Version | Previous Version | Text Only | Print | Product List | Glossary On
Versions: 1 2 3 4 5 6 7 8 9 10 11 12 13 14 15 16
000
FTUS45 KPUB 270527
TAFALS
TAF
KALS 270527Z 2706/2806 21010KT P6SM SKC
     FM271900 30015G25KT P6SM VCTS SCT060CB BKN120
     FM280300 03010KT P6SM SCT080 BKN150=

USA.gov is the U.S. government's official web portal to all federal, state and local government web resources and services.